Time;durP1;ratioP1;P1;durP2;ratioP2;P2;SDS_P1;SDS_P2;PMS_P1;PMS_P2;Temp;Humidity;BMP_temperature;BMP_pressure;BME280_temperature;BME280_humidity;BME280_pressure;Samples;Min_cycle;Max_cycle;Signal;HPM_P1;HPM_P2
2021/12/02 00:00:48;;;;;;;7.07;0.20;;;3.90;99.60;;;;;;5074413;28;20134;-78
2021/12/02 00:03:14;;;;;;;2.35;0.20;;;4.00;99.40;;;;;;5110447;27;20072;-77
2021/12/02 00:05:40;;;;;;;4.22;0.30;;;4.00;99.20;;;;;;5063492;28;20477;-77
2021/12/02 00:08:05;;;;;;;2.83;0.08;;;4.10;99.10;;;;;;5092553;28;20044;-78
2021/12/02 00:10:31;;;;;;;2.80;0.20;;;4.10;99.10;;;;;;5119069;27;20083;-75
2021/12/02 00:13:01;;;;;;;2.50;0.10;;;4.10;98.90;;;;;;5091176;28;20131;-77
2021/12/02 00:15:35;;;;;;;3.08;0.10;;;4.20;98.70;;;;;;5074593;28;20065;-77
2021/12/02 00:21:03;;;;;;;5.85;0.20;;;4.20;98.50;;;;;;5074893;28;20048;-76
2021/12/02 00:21:09;;;;;;;2.05;0.10;;;4.30;98.60;;;;;;5077223;28;20582;-80
2021/12/02 00:23:38;;;;;;;1.95;0.20;;;4.30;98.40;;;;;;5065372;28;20041;-80
2021/12/02 00:26:15;;;;;;;4.40;0.30;;;4.30;98.20;;;;;;5074159;28;20040;-79
2021/12/02 00:28:41;;;;;;;4.15;0.20;;;4.30;98.20;;;;;;5091471;28;20152;-77
2021/12/02 00:31:15;;;;;;;7.32;0.13;;;4.30;98.20;;;;;;5091601;28;20044;-81
2021/12/02 00:33:47;;;;;;;5.22;0.20;;;4.20;98.10;;;;;;5090866;28;20036;-81
2021/12/02 00:36:14;;;;;;;2.33;0.20;;;4.20;98.20;;;;;;5078733;28;20067;-79
2021/12/02 00:38:42;;;;;;;5.03;0.30;;;4.20;98.10;;;;;;5091620;28;20044;-81
2021/12/02 00:41:12;;;;;;;5.30;0.30;;;4.20;98.10;;;;;;5090531;28;20530;-78
2021/12/02 00:43:39;;;;;;;2.78;0.10;;;4.10;98.10;;;;;;5074253;28;20430;-81
2021/12/02 00:46:08;;;;;;;5.63;0.20;;;4.10;98.20;;;;;;5100541;28;20044;-81
2021/12/02 00:48:35;;;;;;;4.53;0.30;;;4.00;98.10;;;;;;5074266;28;20052;-80
2021/12/02 00:51:01;;;;;;;7.35;0.20;;;4.00;98.20;;;;;;5113734;27;20040;-78
2021/12/02 00:53:26;;;;;;;6.93;0.20;;;3.90;98.20;;;;;;5083435;28;20051;-79
2021/12/02 00:55:53;;;;;;;3.08;0.10;;;3.80;98.30;;;;;;5085894;28;20127;-73
2021/12/02 00:58:23;;;;;;;4.22;0.20;;;3.80;98.40;;;;;;5091564;28;20044;-82
2021/12/02 01:00:51;;;;;;;7.03;0.32;;;3.70;98.50;;;;;;5111266;27;20120;-82
2021/12/02 01:03:18;;;;;;;4.18;0.30;;;3.60;98.60;;;;;;5085856;28;20592;-79
2021/12/02 01:05:44;;;;;;;6.55;0.40;;;3.60;98.80;;;;;;5090521;28;20509;-78
2021/12/02 01:08:11;;;;;;;3.78;0.45;;;3.50;98.80;;;;;;5123792;27;20051;-79
2021/12/02 01:10:37;;;;;;;6.95;0.35;;;3.50;98.90;;;;;;5080011;28;20041;-79
2021/12/02 01:13:03;;;;;;;3.35;0.10;;;3.50;98.90;;;;;;5083159;28;20496;-78
2021/12/02 01:15:29;;;;;;;6.03;0.10;;;3.40;99.00;;;;;;5073264;28;20032;-78
2021/12/02 01:17:54;;;;;;;4.32;0.20;;;3.40;99.00;;;;;;5090604;28;20047;-77
2021/12/02 01:20:20;;;;;;;2.40;0.20;;;3.30;99.20;;;;;;5073996;28;20173;-73
2021/12/02 01:22:48;;;;;;;4.78;0.40;;;3.30;99.30;;;;;;5072484;28;20063;-81
2021/12/02 01:25:18;;;;;;;3.05;0.20;;;3.30;99.40;;;;;;5091850;28;20498;-80
2021/12/02 01:27:47;;;;;;;3.47;0.20;;;3.30;99.50;;;;;;5087506;28;20401;-79
2021/12/02 01:30:14;;;;;;;3.60;0.30;;;3.30;99.60;;;;;;5080395;28;20036;-81
2021/12/02 01:32:40;;;;;;;1.42;0.10;;;3.30;99.70;;;;;;5089778;28;20051;-80
2021/12/02 01:35:07;;;;;;;6.13;0.20;;;3.20;99.60;;;;;;5090603;28;20057;-76
2021/12/02 01:37:33;;;;;;;3.00;0.17;;;3.20;99.60;;;;;;5118194;27;20603;-71
2021/12/02 01:40:00;;;;;;;4.80;0.38;;;3.20;99.80;;;;;;5088614;28;20043;-80
2021/12/02 01:42:28;;;;;;;4.30;0.20;;;3.10;99.90;;;;;;5103660;28;20044;-81
2021/12/02 01:44:57;;;;;;;6.95;0.38;;;3.20;99.90;;;;;;5089410;28;20079;-80
2021/12/02 01:47:28;;;;;;;5.00;0.10;;;3.30;99.90;;;;;;5090299;28;20048;-78
2021/12/02 01:49:58;;;;;;;5.25;0.20;;;3.30;99.90;;;;;;5090461;28;20510;-82
2021/12/02 01:52:31;;;;;;;7.53;0.20;;;3.40;99.90;;;;;;5096672;27;20032;-87
2021/12/02 01:55:24;;;;;;;2.15;0.10;;;3.50;99.90;;;;;;5071309;28;20050;-82
2021/12/02 01:58:00;;;;;;;;;;;3.50;99.90;;;;;;5059666;28;20117;-86
2021/12/02 02:00:33;;;;;;;4.30;0.28;;;3.40;99.90;;;;;;5124089;27;19927;-81
2021/12/02 02:03:00;;;;;;;;;;;3.40;99.90;;;;;;5096678;28;20074;-79
2021/12/02 02:05:26;;;;;;;1.48;0.00;;;3.40;99.90;;;;;;5089084;28;19926;-76
2021/12/02 02:07:58;;;;;;;2.50;0.10;;;3.30;99.90;;;;;;5090077;28;20048;-76
2021/12/02 02:10:24;;;;;;;1.75;0.00;;;3.20;99.90;;;;;;5083975;28;20071;-77
2021/12/02 02:12:50;;;;;;;1.17;0.10;;;3.00;99.90;;;;;;5113607;27;20433;-76
2021/12/02 02:15:16;;;;;;;1.95;0.00;;;2.90;99.90;;;;;;5071291;28;20101;-79
2021/12/02 02:17:53;;;;;;;0.50;0.00;;;2.90;99.90;;;;;;5087799;28;20055;-77
2021/12/02 02:20:24;;;;;;;0.10;0.00;;;2.80;99.90;;;;;;5094963;27;20041;-79
2021/12/02 02:22:50;;;;;;;1.98;0.00;;;2.80;99.90;;;;;;5084909;28;20051;-79
2021/12/02 02:25:18;;;;;;;0.30;0.00;;;2.80;99.90;;;;;;5073096;28;20040;-77
2021/12/02 02:27:45;;;;;;;2.50;0.00;;;2.80;99.90;;;;;;5071709;28;20036;-73
2021/12/02 02:30:11;;;;;;;0.60;0.00;;;2.80;99.90;;;;;;5089864;28;20050;-77
2021/12/02 02:32:37;;;;;;;0.65;0.00;;;2.80;99.90;;;;;;5088497;28;20090;-77
2021/12/02 02:35:05;;;;;;;2.55;0.00;;;2.80;99.90;;;;;;5072682;28;20160;-75
2021/12/02 02:37:33;;;;;;;1.08;0.00;;;2.80;99.90;;;;;;5089636;28;20043;-76
2021/12/02 02:40:05;;;;;;;1.13;0.00;;;2.70;99.90;;;;;;5088870;28;20040;-76
2021/12/02 02:42:31;;;;;;;0.52;0.00;;;2.70;99.90;;;;;;5089547;28;20051;-76
2021/12/02 02:44:57;;;;;;;0.75;0.10;;;2.60;99.90;;;;;;5089923;28;20036;-75
2021/12/02 02:47:25;;;;;;;0.63;0.00;;;2.60;99.90;;;;;;5105600;28;20057;-76
2021/12/02 02:49:51;;;;;;;3.00;0.00;;;2.50;99.90;;;;;;5087244;28;20055;-74
2021/12/02 02:52:17;;;;;;;0.20;0.00;;;2.40;99.90;;;;;;5093750;28;20048;-78
2021/12/02 02:54:43;;;;;;;1.35;0.10;;;2.40;99.90;;;;;;5075496;28;20131;-77
2021/12/02 02:57:11;;;;;;;1.58;0.00;;;2.30;99.90;;;;;;5076773;28;20089;-76
2021/12/02 03:02:28;;;;;;;1.40;0.10;;;2.20;99.90;;;;;;5093107;28;20400;-76
2021/12/02 03:05:12;;;;;;;2.47;0.00;;;2.20;99.90;;;;;;5110334;28;20480;-76
2021/12/02 03:07:42;;;;;;;1.42;0.10;;;2.10;99.90;;;;;;5108412;28;20040;-76
2021/12/02 03:12:39;;;;;;;2.10;0.25;;;2.10;99.90;;;;;;5079140;28;20631;-75
2021/12/02 03:17:33;;;;;;;1.70;0.10;;;2.00;99.90;;;;;;5078001;28;20047;-74
2021/12/02 03:19:59;;;;;;;3.67;0.00;;;2.00;99.90;;;;;;5108542;27;20381;-75
2021/12/02 03:22:25;;;;;;;3.08;0.00;;;2.00;99.90;;;;;;5076837;28;20047;-75
2021/12/02 03:24:51;;;;;;;2.10;0.00;;;2.00;99.90;;;;;;5092617;28;20059;-76
2021/12/02 03:27:17;;;;;;;0.68;0.00;;;2.00;99.90;;;;;;5075814;28;20039;-78
2021/12/02 03:29:43;;;;;;;1.58;0.10;;;2.00;99.90;;;;;;5126160;27;20123;-80
2021/12/02 03:32:09;;;;;;;0.65;0.00;;;2.00;99.90;;;;;;5092938;28;20135;-79
2021/12/02 03:34:36;;;;;;;0.45;0.10;;;1.90;99.90;;;;;;5111661;27;20127;-80
2021/12/02 03:37:02;;;;;;;4.45;0.10;;;1.90;99.90;;;;;;5074561;28;20109;-73
2021/12/02 03:39:28;;;;;;;1.92;0.00;;;1.90;99.90;;;;;;5084767;28;20119;-78
2021/12/02 03:41:55;;;;;;;1.60;0.20;;;1.90;99.90;;;;;;5074272;28;20131;-76
2021/12/02 03:44:21;;;;;;;2.30;0.10;;;1.90;99.90;;;;;;5066274;28;20055;-77
2021/12/02 03:46:47;;;;;;;1.38;0.10;;;2.00;99.90;;;;;;5091916;28;20040;-77
2021/12/02 03:49:13;;;;;;;0.85;0.00;;;2.00;99.90;;;;;;5092543;28;20055;-79
2021/12/02 03:51:38;;;;;;;1.42;0.00;;;2.10;99.90;;;;;;5074567;28;20044;-79
2021/12/02 03:54:04;;;;;;;4.43;0.08;;;2.10;99.90;;;;;;5092345;28;20048;-77
2021/12/02 03:56:30;;;;;;;2.05;0.10;;;2.20;99.90;;;;;;5111923;27;20416;-77
2021/12/02 03:58:56;;;;;;;1.33;0.10;;;2.30;99.90;;;;;;5074996;28;20048;-75
2021/12/02 04:01:23;;;;;;;1.70;0.10;;;2.40;99.90;;;;;;5121128;27;20051;-78
2021/12/02 04:03:50;;;;;;;1.95;0.00;;;2.50;99.90;;;;;;5075231;28;20063;-79
2021/12/02 04:06:16;;;;;;;1.80;0.10;;;2.60;99.90;;;;;;5114945;27;20040;-77
2021/12/02 04:08:48;;;;;;;2.00;0.00;;;2.60;99.90;;;;;;5078815;28;20512;-76
2021/12/02 04:11:22;;;;;;;;;;;2.60;99.90;;;;;;5071918;28;20044;-77
2021/12/02 04:16:21;;;;;;;1.83;0.00;;;2.60;99.90;;;;;;5092356;28;20056;-77
2021/12/02 04:18:47;;;;;;;1.10;0.00;;;2.60;99.90;;;;;;5078425;28;20086;-77
2021/12/02 04:21:13;;;;;;;1.77;0.00;;;2.70;99.90;;;;;;5075588;28;20076;-77
2021/12/02 04:23:39;;;;;;;1.30;0.00;;;2.60;99.90;;;;;;5091218;28;20442;-75
2021/12/02 04:26:05;;;;;;;0.40;0.00;;;2.60;99.90;;;;;;5108534;28;20040;-75
2021/12/02 04:28:31;;;;;;;1.55;0.00;;;2.50;99.90;;;;;;5091076;28;20123;-79
2021/12/02 04:30:57;;;;;;;1.95;0.20;;;2.50;99.90;;;;;;5122150;27;20045;-75
2021/12/02 04:33:23;;;;;;;1.30;0.10;;;2.50;99.90;;;;;;5086657;28;20038;-78
2021/12/02 04:35:48;;;;;;;0.30;0.00;;;2.50;99.90;;;;;;5091545;28;20054;-79
2021/12/02 04:38:14;;;;;;;1.58;0.00;;;2.50;99.90;;;;;;5074666;28;20541;-75
2021/12/02 04:40:41;;;;;;;1.58;0.00;;;2.50;99.90;;;;;;5113793;27;20048;-77
2021/12/02 04:43:08;;;;;;;0.60;0.00;;;2.50;99.90;;;;;;5074368;28;20071;-76
2021/12/02 04:45:34;;;;;;;1.67;0.00;;;2.50;99.90;;;;;;5087949;28;20056;-76
2021/12/02 04:48:00;;;;;;;2.13;0.03;;;2.60;99.90;;;;;;5104239;28;20517;-82
2021/12/02 04:50:26;;;;;;;0.80;0.10;;;2.60;99.90;;;;;;5106235;27;20055;-81
2021/12/02 04:52:53;;;;;;;0.82;0.10;;;2.70;99.90;;;;;;5070971;28;20112;-71
2021/12/02 04:55:20;;;;;;;2.70;0.10;;;2.70;99.90;;;;;;5123612;27;20126;-78
2021/12/02 04:57:49;;;;;;;0.35;0.00;;;2.80;99.90;;;;;;5090711;28;20121;-78
2021/12/02 05:00:16;;;;;;;2.53;0.00;;;2.70;99.90;;;;;;5091237;28;20044;-71
2021/12/02 05:02:42;;;;;;;1.33;0.00;;;2.70;99.90;;;;;;5073397;28;20097;-70
2021/12/02 05:05:09;;;;;;;1.35;0.00;;;2.80;99.90;;;;;;5091835;28;20048;-71
2021/12/02 05:07:35;;;;;;;2.40;0.10;;;2.70;99.90;;;;;;5112564;27;20098;-78
2021/12/02 05:10:06;;;;;;;0.82;0.10;;;2.70;99.90;;;;;;5070906;28;20055;-73
2021/12/02 05:12:32;;;;;;;4.68;0.10;;;2.70;99.90;;;;;;5082565;28;20419;-76
2021/12/02 05:14:57;;;;;;;1.75;0.05;;;2.60;99.90;;;;;;5124579;27;20051;-79
2021/12/02 05:17:23;;;;;;;2.00;0.10;;;2.60;99.90;;;;;;5091991;28;20373;-72
2021/12/02 05:19:49;;;;;;;1.42;0.20;;;2.50;99.90;;;;;;5091801;28;20036;-79
2021/12/02 05:22:15;;;;;;;2.67;0.00;;;2.50;99.90;;;;;;5090528;28;20126;-78
2021/12/02 05:24:40;;;;;;;0.73;0.00;;;2.40;99.90;;;;;;5101638;28;20032;-78
2021/12/02 05:27:06;;;;;;;0.95;0.10;;;2.40;99.90;;;;;;5061880;28;20044;-71
2021/12/02 05:29:32;;;;;;;0.60;0.10;;;2.40;99.90;;;;;;5122471;27;20497;-69
2021/12/02 05:31:58;;;;;;;2.05;0.10;;;2.30;99.90;;;;;;5121245;27;20051;-77
2021/12/02 05:34:25;;;;;;;1.05;0.10;;;2.30;99.90;;;;;;5090703;28;20078;-79
2021/12/02 05:36:50;;;;;;;1.20;0.00;;;2.30;99.90;;;;;;5089201;28;20089;-78
2021/12/02 05:39:16;;;;;;;0.52;0.00;;;2.30;99.90;;;;;;5108030;28;20051;-76
2021/12/02 05:41:42;;;;;;;1.88;0.00;;;2.30;99.90;;;;;;5082563;28;20473;-72
2021/12/02 05:44:08;;;;;;;0.00;0.00;;;2.40;99.90;;;;;;5090356;28;20044;-78
2021/12/02 05:46:34;;;;;;;0.60;0.00;;;2.40;99.90;;;;;;5089294;28;20142;-79
2021/12/02 05:48:59;;;;;;;2.30;0.13;;;2.40;99.90;;;;;;5089724;28;20086;-73
2021/12/02 05:51:25;;;;;;;0.22;0.00;;;2.50;99.90;;;;;;5072484;28;20035;-79
2021/12/02 05:53:51;;;;;;;0.57;0.00;;;2.50;99.90;;;;;;5087353;28;20051;-79
2021/12/02 05:56:16;;;;;;;1.23;0.10;;;2.60;99.90;;;;;;5070532;28;20044;-78
2021/12/02 05:58:42;;;;;;;0.32;0.00;;;2.60;99.90;;;;;;5119513;27;20043;-74
2021/12/02 06:01:08;;;;;;;0.73;0.00;;;2.50;99.90;;;;;;5073620;28;20083;-77
2021/12/02 06:03:36;;;;;;;2.25;0.00;;;2.50;99.90;;;;;;5089588;28;20044;-78
2021/12/02 06:06:05;;;;;;;1.45;0.00;;;2.50;99.90;;;;;;5090311;28;20047;-75
2021/12/02 06:08:31;;;;;;;1.17;0.00;;;2.40;99.90;;;;;;5106653;27;20045;-76
2021/12/02 06:10:57;;;;;;;0.38;0.00;;;2.40;99.90;;;;;;5096923;28;20062;-79
2021/12/02 06:13:24;;;;;;;1.85;0.20;;;2.30;99.90;;;;;;5073442;28;20040;-78
2021/12/02 06:15:50;;;;;;;2.17;0.30;;;2.30;99.90;;;;;;5072521;28;20036;-78
2021/12/02 06:18:16;;;;;;;1.40;0.10;;;2.30;99.90;;;;;;5106540;28;20044;-79
2021/12/02 06:20:42;;;;;;;2.45;0.10;;;2.30;99.90;;;;;;5089329;28;20400;-71
2021/12/02 06:23:08;;;;;;;0.30;0.00;;;2.30;99.90;;;;;;5073317;28;20078;-73
2021/12/02 06:27:59;;;;;;;2.20;0.00;;;2.40;99.90;;;;;;5090110;28;20048;-77
2021/12/02 06:30:26;;;;;;;0.10;0.00;;;2.50;99.90;;;;;;5103309;28;20044;-80
2021/12/02 06:32:52;;;;;;;1.33;0.10;;;2.50;99.90;;;;;;5072174;28;20076;-79
2021/12/02 06:35:18;;;;;;;4.03;0.00;;;2.50;99.90;;;;;;5104935;28;20079;-76
2021/12/02 06:37:46;;;;;;;1.50;0.05;;;2.50;99.90;;;;;;5086616;28;20070;-77
2021/12/02 06:40:12;;;;;;;0.13;0.00;;;2.50;99.90;;;;;;5075999;28;20098;-76
2021/12/02 06:42:38;;;;;;;0.57;0.00;;;2.40;99.90;;;;;;5068960;28;20044;-76
2021/12/02 06:45:05;;;;;;;2.30;0.00;;;2.40;99.90;;;;;;5066583;28;20032;-75
2021/12/02 06:47:34;;;;;;;0.73;0.00;;;2.30;99.90;;;;;;5072077;28;20060;-71
2021/12/02 06:50:02;;;;;;;0.40;0.00;;;2.30;99.90;;;;;;5103932;28;20051;-72
2021/12/02 06:52:28;;;;;;;0.45;0.00;;;2.30;99.90;;;;;;5099368;28;20044;-70
2021/12/02 06:54:55;;;;;;;0.77;0.20;;;2.30;99.90;;;;;;5073606;28;20055;-75
2021/12/02 06:57:21;;;;;;;0.30;0.00;;;2.30;99.90;;;;;;5089468;28;20032;-77
2021/12/02 06:59:46;;;;;;;0.25;0.10;;;2.30;99.90;;;;;;5103406;28;20049;-77
2021/12/02 07:02:12;;;;;;;1.95;0.10;;;2.30;99.90;;;;;;5089863;28;20538;-79
2021/12/02 07:04:38;;;;;;;1.58;0.10;;;2.20;99.90;;;;;;5087219;28;20115;-81
2021/12/02 07:07:05;;;;;;;1.77;0.10;;;2.20;99.90;;;;;;5123342;28;20040;-81
2021/12/02 07:09:32;;;;;;;0.75;0.00;;;2.20;99.90;;;;;;5081431;28;20040;-84
2021/12/02 07:11:58;;;;;;;1.10;0.10;;;2.20;99.90;;;;;;5081429;28;20374;-73
2021/12/02 07:14:25;;;;;;;0.98;0.20;;;2.20;99.90;;;;;;5052021;28;20086;-79
2021/12/02 07:16:51;;;;;;;2.78;0.10;;;2.10;99.90;;;;;;5081286;28;20056;-72
2021/12/02 07:19:17;;;;;;;1.15;0.20;;;2.10;99.90;;;;;;5086502;28;20041;-84
2021/12/02 07:21:44;;;;;;;1.48;0.22;;;2.10;99.90;;;;;;5062873;28;20449;-72
2021/12/02 07:24:13;;;;;;;0.82;0.10;;;2.10;99.90;;;;;;5038140;28;20043;-72
2021/12/02 07:26:41;;;;;;;0.82;0.10;;;2.10;99.90;;;;;;5090038;28;20397;-72
2021/12/02 07:29:11;;;;;;;1.08;0.17;;;2.10;99.90;;;;;;5117965;28;20560;-86
2021/12/02 07:31:39;;;;;;;6.65;0.30;;;2.20;99.90;;;;;;5086382;28;20047;-83
2021/12/02 07:34:06;;;;;;;1.85;0.10;;;2.30;99.90;;;;;;5076383;28;20044;-81
2021/12/02 07:36:34;;;;;;;2.67;0.10;;;2.30;99.90;;;;;;5105161;28;20045;-80
2021/12/02 07:39:05;;;;;;;2.92;0.10;;;2.30;99.90;;;;;;5068031;28;20452;-82
2021/12/02 07:41:31;;;;;;;0.40;0.20;;;2.40;99.90;;;;;;5065482;28;20037;-82
2021/12/02 07:43:57;;;;;;;1.58;0.10;;;2.40;99.90;;;;;;5070481;28;20056;-81
2021/12/02 07:46:23;;;;;;;2.50;0.20;;;2.50;99.90;;;;;;5062757;28;20044;-81
2021/12/02 07:48:48;;;;;;;1.13;0.10;;;2.50;99.90;;;;;;5091453;28;20052;-72
2021/12/02 07:51:16;;;;;;;2.53;0.10;;;2.50;99.90;;;;;;5073538;28;20056;-81
2021/12/02 07:53:44;;;;;;;3.47;0.10;;;2.60;99.90;;;;;;5091993;28;20531;-80
2021/12/02 07:56:18;;;;;;;0.57;0.10;;;2.70;99.90;;;;;;5092159;28;20485;-81
2021/12/02 07:58:47;;;;;;;0.45;0.03;;;2.70;99.90;;;;;;5083912;28;20044;-80
2021/12/02 08:01:14;;;;;;;2.45;0.13;;;2.80;99.90;;;;;;5084854;28;20097;-71
2021/12/02 08:03:45;;;;;;;1.15;0.20;;;2.80;99.90;;;;;;5108620;27;20155;-81
2021/12/02 08:06:17;;;;;;;0.52;0.10;;;2.80;99.90;;;;;;5112719;27;20489;-81
2021/12/02 08:08:45;;;;;;;6.43;0.10;;;2.90;99.90;;;;;;5110267;27;20044;-82
2021/12/02 08:11:12;;;;;;;0.70;0.10;;;2.90;99.90;;;;;;5067630;28;20097;-83
2021/12/02 08:13:38;;;;;;;0.82;0.10;;;3.00;99.90;;;;;;5067350;28;20072;-78
2021/12/02 08:16:06;;;;;;;1.10;0.10;;;3.00;99.90;;;;;;5077675;28;20106;-81
2021/12/02 08:18:33;;;;;;;1.25;0.10;;;3.00;99.90;;;;;;5071774;28;20413;-82
2021/12/02 08:20:59;;;;;;;3.00;0.10;;;3.10;99.90;;;;;;5082941;28;20124;-73
2021/12/02 08:23:25;;;;;;;0.75;0.00;;;3.10;99.90;;;;;;5111626;27;20127;-85
2021/12/02 08:25:53;;;;;;;1.00;0.00;;;3.10;99.90;;;;;;5071592;28;20503;-77
2021/12/02 08:28:19;;;;;;;0.40;0.10;;;3.10;99.90;;;;;;5090809;28;20126;-72
2021/12/02 08:30:45;;;;;;;3.13;0.10;;;3.10;99.90;;;;;;5125981;27;20127;-83
2021/12/02 08:33:13;;;;;;;0.98;0.00;;;3.00;99.90;;;;;;5074652;28;20048;-83
2021/12/02 08:35:40;;;;;;;0.22;0.00;;;3.00;99.90;;;;;;5125505;27;20087;-82
2021/12/02 08:38:10;;;;;;;1.55;0.00;;;3.00;99.90;;;;;;5125974;27;20051;-82
2021/12/02 08:40:37;;;;;;;0.60;0.00;;;3.00;99.90;;;;;;5125087;27;20793;-82
2021/12/02 08:43:09;;;;;;;1.08;0.00;;;2.90;99.90;;;;;;5091101;28;20127;-72
2021/12/02 08:45:36;;;;;;;0.40;0.00;;;2.90;99.90;;;;;;5090851;28;20500;-82
2021/12/02 08:48:03;;;;;;;0.25;0.00;;;2.90;99.90;;;;;;5074782;28;20056;-80
2021/12/02 08:50:30;;;;;;;0.57;0.00;;;2.80;99.90;;;;;;5108485;28;20061;-71
2021/12/02 08:52:57;;;;;;;0.30;0.00;;;2.80;99.90;;;;;;5060593;28;20048;-82
2021/12/02 08:55:24;;;;;;;0.63;0.00;;;2.80;99.90;;;;;;5071492;28;20075;-82
2021/12/02 08:57:52;;;;;;;1.08;0.00;;;2.70;99.90;;;;;;5054242;28;20404;-83
2021/12/02 09:00:21;;;;;;;0.82;0.00;;;2.70;99.90;;;;;;5053919;28;20119;-82
2021/12/02 09:02:47;;;;;;;1.15;0.00;;;2.70;99.90;;;;;;5070703;28;20091;-81
2021/12/02 09:05:14;;;;;;;0.10;0.00;;;2.70;99.90;;;;;;5071154;28;20067;-81
2021/12/02 09:07:39;;;;;;;1.88;0.10;;;2.70;99.90;;;;;;5070357;28;20405;-75
2021/12/02 09:10:08;;;;;;;1.20;0.10;;;2.70;99.90;;;;;;5054357;28;20056;-82
2021/12/02 09:12:34;;;;;;;0.80;0.20;;;2.80;99.90;;;;;;5053984;28;20045;-82
2021/12/02 09:15:00;;;;;;;0.93;0.10;;;2.90;99.90;;;;;;5070063;28;20094;-72
2021/12/02 09:17:26;;;;;;;1.40;0.10;;;3.00;99.90;;;;;;5054182;28;20076;-82
2021/12/02 09:19:52;;;;;;;1.33;0.30;;;3.00;99.90;;;;;;5070686;28;20512;-82
2021/12/02 09:22:18;;;;;;;3.47;0.38;;;3.10;99.90;;;;;;5069986;28;20047;-82
2021/12/02 09:24:44;;;;;;;1.48;0.22;;;3.10;99.90;;;;;;5053395;28;20036;-81
2021/12/02 09:27:10;;;;;;;2.80;0.30;;;3.20;99.90;;;;;;5054274;28;20044;-83
2021/12/02 09:29:36;;;;;;;2.67;0.20;;;3.30;99.90;;;;;;5069611;28;20040;-83
2021/12/02 09:32:02;;;;;;;1.77;0.20;;;3.40;99.90;;;;;;5053874;28;20432;-82
2021/12/02 09:34:28;;;;;;;1.40;0.30;;;3.50;99.90;;;;;;5070713;28;20074;-82
2021/12/02 09:36:55;;;;;;;0.88;0.15;;;3.60;99.90;;;;;;5052811;28;20044;-80
2021/12/02 09:39:21;;;;;;;1.05;0.20;;;3.70;99.90;;;;;;5070528;28;20048;-72
2021/12/02 09:41:47;;;;;;;1.40;0.10;;;3.80;99.90;;;;;;5052494;28;20088;-81
2021/12/02 09:44:14;;;;;;;1.85;0.20;;;3.80;99.90;;;;;;5070523;28;20048;-82
2021/12/02 09:46:41;;;;;;;2.15;0.15;;;3.80;99.90;;;;;;5069545;28;20044;-77
2021/12/02 09:49:10;;;;;;;2.88;0.10;;;3.70;99.90;;;;;;5053175;28;20397;-83
2021/12/02 09:51:47;;;;;;;1.60;0.17;;;3.80;99.90;;;;;;5069652;28;20049;-83
2021/12/02 09:54:17;;;;;;;0.68;0.10;;;3.70;99.90;;;;;;5070026;28;20050;-82
2021/12/02 09:56:47;;;;;;;1.73;0.30;;;3.80;99.90;;;;;;5069273;28;20056;-83
2021/12/02 09:59:26;;;;;;;2.38;0.10;;;3.70;99.90;;;;;;5053487;28;20432;-76
2021/12/02 10:01:57;;;;;;;2.22;0.13;;;3.70;99.90;;;;;;5069954;28;20057;-81
2021/12/02 10:04:23;;;;;;;0.40;0.10;;;3.70;99.90;;;;;;5052979;28;20508;-78
2021/12/02 10:07:03;;;;;;;1.42;0.10;;;3.70;99.90;;;;;;5070187;28;20442;-72
2021/12/02 10:09:39;;;;;;;4.13;0.10;;;3.80;99.90;;;;;;5100012;28;20484;-79
2021/12/02 10:12:16;;;;;;;1.95;0.10;;;3.70;99.90;;;;;;5101907;28;20165;-79
2021/12/02 10:14:53;;;;;;;2.03;0.20;;;3.80;99.90;;;;;;5123518;27;20056;-75
2021/12/02 10:20:15;;;;;;;2.95;0.20;;;3.80;99.90;;;;;;5074290;28;20492;-79
2021/12/02 10:22:46;;;;;;;3.47;0.20;;;3.80;99.90;;;;;;5075018;28;20037;-79
2021/12/02 10:25:27;;;;;;;1.35;0.10;;;3.80;99.90;;;;;;5058124;28;20048;-78
2021/12/02 10:28:11;;;;;;;3.40;0.50;;;3.90;99.90;;;;;;5105887;28;20048;-79
2021/12/02 10:30:46;;;;;;;3.30;0.28;;;4.00;99.90;;;;;;5062505;28;20413;-81
2021/12/02 10:33:13;;;;;;;2.28;0.10;;;4.20;99.90;;;;;;5077880;28;20055;-81
2021/12/02 10:35:45;;;;;;;0.85;0.10;;;4.40;99.90;;;;;;5072479;28;20097;-83
2021/12/02 10:38:36;;;;;;;4.28;0.10;;;4.50;99.90;;;;;;5072156;28;20039;-83
2021/12/02 10:41:09;;;;;;;2.25;0.10;;;4.60;99.90;;;;;;5073134;28;20051;-83
2021/12/02 10:43:35;;;;;;;2.38;0.10;;;4.60;99.90;;;;;;5089520;28;20048;-82
2021/12/02 10:46:15;;;;;;;2.40;0.20;;;4.50;99.90;;;;;;5088867;28;20040;-83
2021/12/02 10:48:50;;;;;;;1.33;0.10;;;4.50;99.90;;;;;;5089070;28;20058;-82
2021/12/02 10:51:43;;;;;;;5.82;0.30;;;4.40;99.90;;;;;;5089906;28;20093;-81
2021/12/02 10:54:14;;;;;;;1.95;0.10;;;4.40;99.90;;;;;;5068253;28;20392;-81
2021/12/02 10:56:43;;;;;;;1.67;0.00;;;4.50;99.90;;;;;;5089518;28;20400;-81
2021/12/02 10:59:44;;;;;;;1.48;0.20;;;4.60;99.90;;;;;;5072064;28;20044;-81
2021/12/02 11:02:26;;;;;;;1.40;0.03;;;4.90;99.90;;;;;;5086547;28;20556;-77
2021/12/02 11:05:00;;;;;;;5.03;0.10;;;5.10;99.90;;;;;;5083678;28;20052;-78
2021/12/02 11:07:30;;;;;;;0.93;0.08;;;5.50;99.90;;;;;;5052266;28;20118;-81
2021/12/02 11:09:59;;;;;;;4.28;0.13;;;5.80;99.90;;;;;;5057971;28;20563;-81
2021/12/02 11:12:30;;;;;;;1.58;0.10;;;6.10;99.90;;;;;;5093723;28;20040;-83
2021/12/02 11:14:57;;;;;;;1.88;0.10;;;6.00;99.60;;;;;;5076108;28;20048;-84
2021/12/02 11:17:25;;;;;;;2.33;0.00;;;5.60;98.20;;;;;;5094119;28;20036;-74
2021/12/02 11:19:51;;;;;;;0.98;0.00;;;5.00;97.70;;;;;;5093483;28;20050;-82
2021/12/02 11:22:21;;;;;;;0.98;0.00;;;4.50;98.20;;;;;;5078933;28;20098;-82
2021/12/02 11:24:49;;;;;;;0.32;0.00;;;4.10;98.90;;;;;;5072695;28;20056;-81
2021/12/02 11:27:40;;;;;;;0.80;0.00;;;3.80;99.20;;;;;;5072526;28;20102;-80
2021/12/02 11:30:21;;;;;;;2.90;0.00;;;3.40;99.20;;;;;;5097241;28;20132;-71
2021/12/02 11:32:58;;;;;;;1.65;0.00;;;3.20;99.90;;;;;;5054875;28;20060;-80
2021/12/02 11:35:33;;;;;;;0.28;0.00;;;3.20;99.90;;;;;;5072666;28;20086;-79
2021/12/02 11:38:26;;;;;;;1.35;0.10;;;3.10;99.90;;;;;;5070333;28;20040;-73
2021/12/02 11:40:55;;;;;;;2.03;0.10;;;3.10;99.90;;;;;;5103121;27;20080;-76
2021/12/02 11:43:26;;;;;;;1.30;0.10;;;3.10;99.90;;;;;;5089131;28;20044;-79
2021/12/02 11:45:54;;;;;;;0.63;0.00;;;3.00;99.90;;;;;;5075793;28;20457;-79
2021/12/02 11:48:22;;;;;;;1.38;0.00;;;3.00;99.90;;;;;;5074319;28;20079;-79
2021/12/02 11:50:51;;;;;;;0.70;0.00;;;2.90;99.90;;;;;;5091097;28;20047;-71
2021/12/02 11:53:26;;;;;;;1.90;0.10;;;2.90;99.90;;;;;;5092987;28;20135;-81
2021/12/02 11:56:08;;;;;;;3.72;0.28;;;2.90;99.90;;;;;;5091933;28;20079;-78
2021/12/02 11:58:33;;;;;;;0.70;0.15;;;3.00;99.90;;;;;;5052375;28;20049;-78
2021/12/02 12:00:59;;;;;;;0.70;0.10;;;3.20;99.90;;;;;;5070378;28;20036;-77
2021/12/02 12:03:32;;;;;;;0.47;0.10;;;3.30;99.90;;;;;;5088689;28;20463;-77
2021/12/02 12:06:01;;;;;;;0.82;0.00;;;3.60;99.90;;;;;;5070093;28;20111;-75
2021/12/02 12:08:34;;;;;;;0.45;0.00;;;3.80;99.90;;;;;;5126200;27;20095;-79
2021/12/02 12:11:18;;;;;;;0.30;0.10;;;4.10;99.90;;;;;;5095365;27;20045;-80
2021/12/02 12:14:12;;;;;;;1.90;0.10;;;4.00;99.90;;;;;;5056719;28;20528;-77
2021/12/02 12:16:42;;;;;;;0.82;0.00;;;4.10;99.90;;;;;;5064625;28;20109;-77
2021/12/02 12:19:30;;;;;;;1.65;0.00;;;3.90;99.90;;;;;;5101847;27;20052;-78
2021/12/02 12:22:12;;;;;;;0.00;0.00;;;3.80;99.90;;;;;;5087704;28;20913;-77
2021/12/02 12:24:52;;;;;;;0.38;0.00;;;3.60;99.90;;;;;;5092816;27;20483;-75
2021/12/02 12:27:21;;;;;;;0.35;0.00;;;3.80;99.90;;;;;;5067910;28;20047;-74
2021/12/02 12:30:14;;;;;;;0.80;0.00;;;4.60;99.90;;;;;;5073817;28;20044;-76
2021/12/02 12:37:53;;;;;;;0.50;0.00;;;7.00;96.20;;;;;;5088757;28;20515;-77
2021/12/02 12:40:29;;;;;;;0.30;0.00;;;7.50;94.50;;;;;;5074194;28;20485;-77
2021/12/02 12:42:58;;;;;;;1.38;0.00;;;7.80;92.40;;;;;;5115832;27;20572;-76
2021/12/02 12:45:27;;;;;;;0.50;0.00;;;8.30;92.40;;;;;;5058044;28;20055;-78
2021/12/02 12:47:59;;;;;;;1.88;0.10;;;8.50;91.00;;;;;;5087420;28;20063;-77
2021/12/02 12:50:43;;;;;;;0.35;0.00;;;9.00;91.10;;;;;;5107886;27;20048;-76
2021/12/02 12:53:17;;;;;;;0.08;0.00;;;9.40;88.60;;;;;;5089190;28;20080;-77
2021/12/02 12:55:55;;;;;;;1.27;0.00;;;9.70;88.10;;;;;;5088465;28;20078;-78
2021/12/02 12:58:29;;;;;;;0.55;0.00;;;9.90;86.20;;;;;;5056204;28;20043;-78
2021/12/02 13:00:57;;;;;;;0.40;0.00;;;10.10;84.10;;;;;;5035262;28;20500;-77
2021/12/02 13:03:31;;;;;;;0.10;0.00;;;10.10;82.10;;;;;;5039117;28;20106;-75
2021/12/02 13:06:13;;;;;;;0.08;0.00;;;10.20;79.90;;;;;;5086521;27;20049;-76
2021/12/02 13:09:04;;;;;;;0.30;0.00;;;10.30;77.70;;;;;;5070017;28;20408;-73
2021/12/02 13:11:33;;;;;;;1.27;0.00;;;10.40;76.90;;;;;;5093236;28;20166;-76
2021/12/02 13:14:01;;;;;;;0.32;0.00;;;10.40;79.60;;;;;;5101327;27;20099;-73
2021/12/02 13:16:30;;;;;;;0.00;0.00;;;10.20;79.30;;;;;;5060886;28;20131;-75
2021/12/02 13:19:12;;;;;;;0.65;0.00;;;10.00;79.30;;;;;;5057055;28;20055;-73
2021/12/02 13:21:39;;;;;;;0.25;0.00;;;10.00;80.70;;;;;;5072562;28;20501;-76
2021/12/02 13:24:19;;;;;;;1.02;0.00;;;10.10;79.60;;;;;;5067807;28;20097;-74
2021/12/02 13:26:52;;;;;;;0.20;0.00;;;9.80;77.00;;;;;;5110196;27;20500;-73
2021/12/02 13:29:23;;;;;;;0.10;0.00;;;9.40;78.70;;;;;;5061858;28;20055;-74